createdAt,value
2018-05-10T00:02:06.799Z,19.00
2018-05-10T00:04:34.371Z,18.90
2018-05-10T00:07:01.969Z,18.80
2018-05-10T00:09:29.588Z,18.80
2018-05-10T00:11:57.148Z,18.50
2018-05-10T00:14:24.724Z,18.60
2018-05-10T00:16:52.275Z,18.40
2018-05-10T00:19:19.861Z,18.40
2018-05-10T00:21:48.212Z,18.30
2018-05-10T00:24:15.852Z,18.20
2018-05-10T00:26:43.426Z,18.20
2018-05-10T00:29:11.384Z,18.20
2018-05-10T00:31:38.514Z,18.10
2018-05-10T00:34:06.096Z,18.10
2018-05-10T00:36:33.706Z,18.00
2018-05-10T00:39:02.050Z,18.00
2018-05-10T00:41:29.637Z,18.10
2018-05-10T00:43:57.196Z,18.10
2018-05-10T00:46:25.596Z,18.20
2018-05-10T00:48:53.172Z,18.20
2018-05-10T00:51:20.763Z,18.10
2018-05-10T00:53:47.860Z,18.20
2018-05-10T00:56:16.199Z,18.00
2018-05-10T00:58:43.769Z,17.90
2018-05-10T01:01:11.336Z,17.80
2018-05-10T01:03:38.930Z,17.80
2018-05-10T01:06:07.263Z,17.70
2018-05-10T01:08:34.849Z,17.50
2018-05-10T01:11:03.171Z,17.40
2018-05-10T01:13:30.768Z,17.40
2018-05-10T01:15:58.370Z,17.30
2018-05-10T01:18:26.012Z,17.30
2018-05-10T01:20:53.592Z,17.20
2018-05-10T01:23:21.175Z,17.10
2018-05-10T01:25:48.801Z,17.10
2018-05-10T01:28:17.135Z,17.00
2018-05-10T01:30:44.700Z,17.00
2018-05-10T01:33:12.292Z,17.00
2018-05-10T01:35:51.591Z,16.90
2018-05-10T01:38:19.212Z,16.90
2018-05-10T01:40:47.543Z,16.90
2018-05-10T01:43:15.124Z,16.90
2018-05-10T01:45:42.756Z,16.90
2018-05-10T01:48:11.073Z,16.80
2018-05-10T01:50:39.408Z,16.80
2018-05-10T01:53:07.004Z,16.80
2018-05-10T01:55:34.568Z,16.80
2018-05-10T01:58:02.166Z,16.80
2018-05-10T02:00:29.756Z,16.80
2018-05-10T02:02:57.380Z,16.80
2018-05-10T02:05:24.972Z,16.80
2018-05-10T02:07:52.540Z,16.80
2018-05-10T02:10:20.132Z,16.90
2018-05-10T02:12:47.703Z,16.90
2018-05-10T02:15:16.070Z,16.90
2018-05-10T02:17:43.627Z,16.80
2018-05-10T02:20:11.229Z,16.80
2018-05-10T02:22:38.790Z,16.70
2018-05-10T02:25:06.377Z,16.70
2018-05-10T02:27:33.980Z,16.60
2018-05-10T02:30:01.695Z,16.60
2018-05-10T02:32:29.261Z,16.60
2018-05-10T02:34:56.839Z,16.50
2018-05-10T02:37:24.417Z,16.50
2018-05-10T02:39:51.993Z,16.50
2018-05-10T02:42:19.580Z,16.50
2018-05-10T02:44:47.300Z,16.40
2018-05-10T02:47:14.871Z,16.40
2018-05-10T02:49:42.422Z,16.40
2018-05-10T02:52:10.026Z,16.30
2018-05-10T02:54:37.607Z,16.30
2018-05-10T02:57:05.193Z,16.20
2018-05-10T02:59:32.751Z,16.20
2018-05-10T03:02:00.340Z,16.20
2018-05-10T03:04:27.920Z,16.10
2018-05-10T03:06:56.272Z,16.00
2018-05-10T03:09:23.853Z,16.00
2018-05-10T03:11:52.221Z,15.90
2018-05-10T03:14:19.777Z,15.90
2018-05-10T03:16:47.527Z,16.00
2018-05-10T03:19:15.135Z,16.00
2018-05-10T03:21:43.501Z,16.10
2018-05-10T03:24:11.945Z,16.10
2018-05-10T03:26:39.548Z,16.10
2018-05-10T03:29:07.898Z,16.00
2018-05-10T03:31:35.476Z,16.00
2018-05-10T03:34:03.068Z,16.00
2018-05-10T03:36:30.648Z,16.00
2018-05-10T03:38:58.234Z,16.00
2018-05-10T03:41:25.837Z,15.90
2018-05-10T03:43:54.242Z,15.80
2018-05-10T03:46:21.823Z,15.80
2018-05-10T03:48:49.415Z,15.80
2018-05-10T03:51:17.047Z,15.80
2018-05-10T03:53:44.636Z,15.70
2018-05-10T03:56:12.212Z,15.70
2018-05-10T03:58:40.550Z,15.70
2018-05-10T04:01:08.221Z,15.60
2018-05-10T04:03:57.203Z,15.70
2018-05-10T04:06:36.578Z,15.60
2018-05-10T04:09:16.739Z,15.50
2018-05-10T04:11:44.931Z,15.50
2018-05-10T04:14:12.488Z,15.50
2018-05-10T04:16:41.115Z,15.50
2018-05-10T04:19:11.529Z,15.50
2018-05-10T04:21:39.147Z,15.40
2018-05-10T04:24:06.696Z,15.50
2018-05-10T04:26:35.049Z,15.50
2018-05-10T04:29:02.617Z,15.50
2018-05-10T04:31:30.207Z,15.50
2018-05-10T04:33:58.532Z,15.60
2018-05-10T04:36:26.135Z,15.70
2018-05-10T04:38:54.587Z,15.70
2018-05-10T04:41:22.137Z,15.70
2018-05-10T04:43:49.715Z,15.90
2018-05-10T04:46:17.308Z,16.10
2018-05-10T04:48:45.672Z,16.00
2018-05-10T04:51:14.037Z,15.90
2018-05-10T04:53:42.395Z,16.00
2018-05-10T04:56:09.940Z,16.00
2018-05-10T04:58:37.566Z,16.20
2018-05-10T05:01:05.921Z,16.30
2018-05-10T05:03:33.539Z,16.20
2018-05-10T05:06:01.141Z,16.20
2018-05-10T05:08:28.740Z,16.00
2018-05-10T05:10:56.319Z,15.80
2018-05-10T05:13:23.912Z,15.80
2018-05-10T05:15:51.516Z,15.80
2018-05-10T05:18:19.113Z,16.20
2018-05-10T05:20:46.767Z,16.20
2018-05-10T05:23:14.360Z,16.20
2018-05-10T05:25:41.927Z,16.20
2018-05-10T05:28:09.483Z,15.80
2018-05-10T05:30:37.090Z,15.80
2018-05-10T05:33:04.687Z,16.00
2018-05-10T05:35:32.296Z,17.30
2018-05-10T05:37:59.848Z,17.30
2018-05-10T05:40:27.420Z,18.50
2018-05-10T05:42:55.757Z,19.70
2018-05-10T05:45:23.399Z,19.70
2018-05-10T05:47:50.964Z,20.40
2018-05-10T05:50:18.555Z,21.00
2018-05-10T05:52:46.127Z,21.30
2018-05-10T05:55:13.744Z,21.60
2018-05-10T05:57:41.365Z,21.80
2018-05-10T06:00:08.983Z,21.80
2018-05-10T06:02:36.580Z,22.10
2018-05-10T06:05:04.192Z,22.30
2018-05-10T06:07:31.772Z,22.20
2018-05-10T06:09:59.351Z,22.30
2018-05-10T06:12:27.119Z,21.80
2018-05-10T06:14:54.687Z,21.30
2018-05-10T06:17:22.269Z,20.50
2018-05-10T06:19:50.596Z,19.80
2018-05-10T06:22:18.180Z,19.80
2018-05-10T06:24:45.788Z,19.70
2018-05-10T06:27:13.342Z,19.60
2018-05-10T06:29:40.920Z,19.60
2018-05-10T06:32:08.527Z,19.30
2018-05-10T06:34:36.128Z,19.50
2018-05-10T06:37:03.740Z,19.60
2018-05-10T06:39:31.381Z,20.10
2018-05-10T06:41:58.965Z,20.00
2018-05-10T06:44:26.550Z,20.10
2018-05-10T06:46:54.160Z,20.10
2018-05-10T06:49:22.472Z,19.40
2018-05-10T06:51:50.041Z,19.40
2018-05-10T06:54:17.612Z,19.50
2018-05-10T06:56:45.952Z,19.50
2018-05-10T06:59:13.551Z,19.40
2018-05-10T07:01:41.118Z,19.30
2018-05-10T07:04:09.473Z,19.50
2018-05-10T07:06:37.063Z,19.50
2018-05-10T07:09:05.476Z,20.80
2018-05-10T07:11:33.052Z,20.80
2018-05-10T07:14:00.743Z,22.00
2018-05-10T07:16:28.364Z,23.40
2018-05-10T07:18:56.032Z,24.80
2018-05-10T07:21:23.646Z,26.00
2018-05-10T07:23:51.983Z,25.60
2018-05-10T07:26:19.580Z,25.60
2018-05-10T07:28:47.946Z,25.10
2018-05-10T07:31:15.567Z,25.10
2018-05-10T07:33:43.155Z,24.10
2018-05-10T07:36:10.761Z,24.60
2018-05-10T07:38:39.119Z,24.70
2018-05-10T07:41:06.692Z,24.70
2018-05-10T07:43:35.039Z,24.50
2018-05-10T07:46:02.624Z,24.40
2018-05-10T07:48:30.189Z,23.80
2018-05-10T07:50:58.553Z,22.00
2018-05-10T07:53:26.370Z,21.90
2018-05-10T07:55:53.992Z,21.00
2018-05-10T07:58:21.571Z,20.90
2018-05-10T08:00:49.880Z,20.30
2018-05-10T08:03:17.464Z,20.20
2018-05-10T08:05:45.104Z,20.30
2018-05-10T08:08:12.703Z,20.10
2018-05-10T08:10:40.306Z,19.50
2018-05-10T08:13:08.624Z,20.00
2018-05-10T08:15:43.885Z,20.00
2018-05-10T08:18:11.465Z,21.20
2018-05-10T08:20:39.039Z,22.20
2018-05-10T08:23:07.383Z,23.90
2018-05-10T08:25:34.997Z,23.90
2018-05-10T08:28:02.594Z,23.90
2018-05-10T08:30:30.167Z,25.50
2018-05-10T08:32:57.781Z,27.50
2018-05-10T08:35:25.372Z,27.70
2018-05-10T08:37:52.954Z,27.80
2018-05-10T08:40:20.536Z,28.40
2018-05-10T08:42:48.894Z,26.60
2018-05-10T08:45:16.462Z,26.60
2018-05-10T08:47:44.043Z,27.10
2018-05-10T08:50:12.400Z,27.40
2018-05-10T08:52:40.016Z,27.40
2018-05-10T08:55:07.585Z,26.80
2018-05-10T08:57:35.187Z,25.30
2018-05-10T09:00:02.840Z,24.50
2018-05-10T09:02:31.133Z,23.70
2018-05-10T09:04:58.744Z,23.70
2018-05-10T09:07:26.408Z,23.20
2018-05-10T09:09:53.915Z,22.70
2018-05-10T09:12:21.484Z,22.00
2018-05-10T09:14:49.920Z,21.40
2018-05-10T09:17:17.511Z,21.40
2018-05-10T09:19:45.147Z,21.20
2018-05-10T09:22:12.727Z,21.00
2018-05-10T09:24:40.303Z,20.90
2018-05-10T09:27:07.873Z,21.00
2018-05-10T09:29:36.231Z,20.10
2018-05-10T09:32:03.828Z,20.00
2018-05-10T09:34:31.433Z,19.70
2018-05-10T09:36:59.020Z,19.30
2018-05-10T09:39:26.636Z,19.00
2018-05-10T09:41:54.248Z,18.60
2018-05-10T09:44:21.752Z,18.70
2018-05-10T09:46:49.366Z,18.60
2018-05-10T09:49:16.977Z,18.50
2018-05-10T09:51:44.611Z,18.30
2018-05-10T09:54:13.033Z,18.00
2018-05-10T09:56:40.640Z,18.00
2018-05-10T09:59:08.219Z,17.70
2018-05-10T10:01:36.599Z,16.90
2018-05-10T10:04:04.948Z,16.50
2018-05-10T10:06:34.227Z,16.30
2018-05-10T10:09:01.812Z,16.20
2018-05-10T10:11:29.405Z,16.00
2018-05-10T10:13:57.789Z,15.80
2018-05-10T10:16:34.558Z,15.80
2018-05-10T10:19:02.933Z,15.70
2018-05-10T10:21:31.300Z,15.70
2018-05-10T10:23:58.951Z,15.70
2018-05-10T10:26:26.509Z,15.60
2018-05-10T10:28:54.112Z,15.30
2018-05-10T10:31:22.472Z,15.20
2018-05-10T10:33:50.176Z,15.20
2018-05-10T10:36:17.743Z,15.10
2018-05-10T10:38:46.165Z,15.10
2018-05-10T10:41:13.811Z,15.20
2018-05-10T10:43:41.440Z,15.30
2018-05-10T10:46:09.024Z,15.30
2018-05-10T10:48:36.648Z,15.40
2018-05-10T10:51:04.680Z,15.40
2018-05-10T10:53:32.380Z,15.30
2018-05-10T10:56:00.785Z,15.00
2018-05-10T10:58:29.980Z,14.90
2018-05-10T11:00:57.579Z,14.70
2018-05-10T11:03:25.175Z,14.70
2018-05-10T11:05:53.561Z,14.60
2018-05-10T11:08:21.123Z,14.60
2018-05-10T11:10:48.741Z,14.70
2018-05-10T11:13:16.349Z,14.80
2018-05-10T11:15:43.955Z,14.90
2018-05-10T11:18:11.521Z,15.00
2018-05-10T11:20:39.101Z,15.40
2018-05-10T11:23:06.689Z,15.40
2018-05-10T11:25:35.079Z,16.00
2018-05-10T11:28:02.684Z,15.90
2018-05-10T11:30:30.299Z,16.00
2018-05-10T11:32:58.708Z,16.00
2018-05-10T11:35:26.239Z,16.00
2018-05-10T11:37:53.841Z,16.10
2018-05-10T11:40:21.493Z,16.00
2018-05-10T11:42:49.081Z,15.90
2018-05-10T11:45:16.669Z,15.90
2018-05-10T11:47:45.034Z,15.80
2018-05-10T11:50:12.660Z,15.70
2018-05-10T11:52:40.331Z,15.70
2018-05-10T11:55:07.924Z,15.40
2018-05-10T11:57:35.504Z,15.20
2018-05-10T12:00:03.864Z,14.60
2018-05-10T12:02:31.474Z,14.40
2018-05-10T12:04:59.084Z,14.40
2018-05-10T12:07:26.675Z,14.10
2018-05-10T12:09:55.044Z,14.10
2018-05-10T12:12:23.416Z,14.00
2018-05-10T12:14:51.780Z,14.00
2018-05-10T12:17:19.376Z,13.90
2018-05-10T12:19:46.949Z,13.80
2018-05-10T12:22:14.508Z,13.60
2018-05-10T12:24:42.126Z,13.30
2018-05-10T12:27:09.705Z,13.00
2018-05-10T12:29:37.366Z,12.80
2018-05-10T12:32:05.743Z,12.60
2018-05-10T12:34:34.105Z,12.60
2018-05-10T12:37:01.669Z,12.60
2018-05-10T12:39:29.244Z,12.60
2018-05-10T12:41:57.589Z,12.70
2018-05-10T12:44:25.186Z,12.70
2018-05-10T12:46:53.558Z,12.80
2018-05-10T12:49:21.167Z,12.80
2018-05-10T12:51:48.772Z,12.90
2018-05-10T12:54:16.376Z,12.90
2018-05-10T12:56:43.997Z,13.00
2018-05-10T12:59:11.611Z,13.00
2018-05-10T13:01:39.216Z,13.00
2018-05-10T13:04:06.825Z,13.00
2018-05-10T13:06:34.406Z,13.10
2018-05-10T13:09:01.989Z,13.10
2018-05-10T13:11:29.663Z,13.30
2018-05-10T13:13:57.281Z,13.30
2018-05-10T13:16:24.896Z,13.40
2018-05-10T13:18:52.474Z,13.40
2018-05-10T13:21:20.821Z,13.40
2018-05-10T13:23:48.398Z,13.40
2018-05-10T13:26:16.109Z,13.40
2018-05-10T13:28:49.995Z,13.50
2018-05-10T13:31:17.683Z,13.50
2018-05-10T13:33:45.310Z,13.60
2018-05-10T13:36:13.674Z,13.70
2018-05-10T13:38:41.237Z,13.70
2018-05-10T13:41:08.864Z,13.80
2018-05-10T13:43:36.452Z,13.80
2018-05-10T13:46:04.047Z,13.80
2018-05-10T13:48:32.403Z,14.00
2018-05-10T13:50:59.996Z,14.00
2018-05-10T13:53:27.670Z,14.10
2018-05-10T13:55:55.278Z,14.10
2018-05-10T13:58:22.876Z,14.20
2018-05-10T14:00:51.229Z,14.20
2018-05-10T14:03:18.808Z,14.20
2018-05-10T14:05:47.162Z,14.10
2018-05-10T14:08:14.760Z,14.00
2018-05-10T14:10:42.398Z,14.10
2018-05-10T14:13:09.981Z,14.10
2018-05-10T14:15:38.749Z,14.10
2018-05-10T14:18:06.339Z,14.10
2018-05-10T14:20:33.924Z,14.00
2018-05-10T14:23:01.524Z,14.00
2018-05-10T14:25:29.113Z,14.10
2018-05-10T14:27:56.674Z,14.00
2018-05-10T14:30:25.077Z,14.10
2018-05-10T14:32:52.659Z,14.00
2018-05-10T14:35:20.216Z,14.10
2018-05-10T14:37:47.821Z,14.20
2018-05-10T14:40:16.213Z,14.40
2018-05-10T14:42:44.613Z,14.50
2018-05-10T14:45:12.229Z,14.50
2018-05-10T14:47:39.814Z,14.60
2018-05-10T14:50:08.160Z,14.80
2018-05-10T14:52:35.817Z,14.80
2018-05-10T14:55:03.422Z,14.90
2018-05-10T14:57:31.800Z,15.20
2018-05-10T15:00:00.160Z,15.40
2018-05-10T15:02:28.527Z,15.50
2018-05-10T15:04:56.143Z,15.50
2018-05-10T15:07:23.730Z,15.70
2018-05-10T15:09:51.372Z,15.80
2018-05-10T15:12:18.969Z,16.00
2018-05-10T15:14:46.580Z,16.00
2018-05-10T15:17:14.178Z,16.00
2018-05-10T15:19:41.853Z,15.90
2018-05-10T15:22:09.463Z,16.00
2018-05-10T15:24:37.089Z,16.00
2018-05-10T15:27:04.676Z,16.00
2018-05-10T15:29:33.032Z,16.20
2018-05-10T15:32:00.636Z,16.20
2018-05-10T15:34:28.279Z,16.20
2018-05-10T15:36:56.636Z,16.30
2018-05-10T15:39:24.225Z,16.30
2018-05-10T15:41:52.590Z,16.40
2018-05-10T15:44:20.929Z,16.40
2018-05-10T15:46:48.580Z,16.40
2018-05-10T15:49:16.167Z,16.30
2018-05-10T15:51:43.793Z,16.20
2018-05-10T15:54:12.232Z,16.10
2018-05-10T15:56:39.848Z,16.10
2018-05-10T15:59:07.448Z,16.20
2018-05-10T16:01:35.089Z,16.20
2018-05-10T16:04:02.670Z,16.30
2018-05-10T16:06:30.285Z,16.50
2018-05-10T16:08:57.846Z,16.70
2018-05-10T16:11:25.476Z,16.80
2018-05-10T16:13:53.929Z,17.10
2018-05-10T16:16:22.229Z,17.10
2018-05-10T16:18:50.929Z,17.00
2018-05-10T16:21:19.297Z,16.90
2018-05-10T16:23:47.682Z,16.80
2018-05-10T16:26:16.014Z,16.70
2018-05-10T16:28:43.631Z,16.60
2018-05-10T16:31:11.970Z,16.70
2018-05-10T16:33:39.683Z,16.60
2018-05-10T16:36:07.203Z,16.70
2018-05-10T16:38:34.853Z,16.50
2018-05-10T16:41:02.518Z,16.40
2018-05-10T16:43:30.808Z,16.40
2018-05-10T16:45:58.446Z,16.40
2018-05-10T16:48:26.067Z,16.40
2018-05-10T16:50:53.664Z,16.50
2018-05-10T16:53:21.314Z,16.50
2018-05-10T16:55:48.865Z,16.60
2018-05-10T16:58:17.274Z,16.70
2018-05-10T17:00:44.894Z,16.70
2018-05-10T17:03:13.229Z,16.80
2018-05-10T17:05:40.849Z,16.80
2018-05-10T17:08:08.455Z,16.90
2018-05-10T17:10:36.158Z,17.00
2018-05-10T17:13:03.720Z,17.00
2018-05-10T17:15:31.309Z,17.00
2018-05-10T17:17:58.972Z,17.00
2018-05-10T17:20:26.588Z,17.00
2018-05-10T17:22:54.932Z,16.60
2018-05-10T17:25:22.589Z,16.60
2018-05-10T17:27:50.191Z,16.50
2018-05-10T17:30:18.522Z,16.60
2018-05-10T17:32:46.130Z,16.60
2018-05-10T17:35:14.649Z,16.50
2018-05-10T17:37:43.051Z,16.40
2018-05-10T17:40:10.637Z,16.50
2018-05-10T17:42:39.011Z,16.30
2018-05-10T17:45:06.720Z,16.30
2018-05-10T17:47:35.041Z,16.20
2018-05-10T17:50:03.458Z,16.10
2018-05-10T17:52:31.885Z,16.10
2018-05-10T17:54:59.484Z,16.10
2018-05-10T17:57:27.043Z,16.10
2018-05-10T17:59:54.682Z,16.10
2018-05-10T18:02:22.385Z,16.10
2018-05-10T18:04:49.983Z,16.10
2018-05-10T18:07:17.607Z,16.10
2018-05-10T18:09:45.324Z,16.10
2018-05-10T18:12:12.939Z,16.10
2018-05-10T18:14:41.277Z,16.00
2018-05-10T18:17:08.900Z,15.90
2018-05-10T18:19:36.496Z,15.90
2018-05-10T18:22:04.097Z,15.90
2018-05-10T18:24:32.462Z,15.80
2018-05-10T18:27:00.054Z,15.70
2018-05-10T18:29:28.432Z,15.60
2018-05-10T18:31:56.860Z,15.50
2018-05-10T18:34:24.538Z,15.50
2018-05-10T18:36:52.156Z,15.40
2018-05-10T18:39:19.735Z,15.30
2018-05-10T18:41:47.349Z,15.30
2018-05-10T18:44:15.752Z,15.20
2018-05-10T18:46:43.363Z,15.20
2018-05-10T18:49:10.997Z,15.20
2018-05-10T18:51:39.021Z,15.00
2018-05-10T18:54:07.373Z,15.10
2018-05-10T18:56:34.935Z,13.60
2018-05-10T18:59:02.546Z,15.00
2018-05-10T19:01:30.140Z,15.00
2018-05-10T19:03:57.757Z,14.90
2018-05-10T19:06:26.127Z,14.80
2018-05-10T19:08:53.732Z,14.80
2018-05-10T19:11:21.337Z,14.80
2018-05-10T19:13:48.969Z,14.70
2018-05-10T19:16:17.310Z,14.70
2018-05-10T19:18:44.900Z,14.60
2018-05-10T19:21:12.550Z,14.60
2018-05-10T19:23:40.177Z,14.50
2018-05-10T19:26:07.788Z,14.50
2018-05-10T19:28:36.212Z,14.30
2018-05-10T19:31:03.943Z,14.30
2018-05-10T19:33:31.578Z,14.10
2018-05-10T19:35:59.568Z,14.00
2018-05-10T19:38:27.164Z,13.90
2018-05-10T19:40:54.790Z,13.80
2018-05-10T19:43:22.350Z,13.80
2018-05-10T19:45:49.947Z,13.70
2018-05-10T19:48:17.548Z,13.60
2018-05-10T19:50:45.129Z,13.30
2018-05-10T19:53:13.020Z,13.20
2018-05-10T19:55:40.612Z,13.20
2018-05-10T19:58:08.242Z,13.10
2018-05-10T20:00:36.748Z,13.10
2018-05-10T20:03:04.332Z,13.00
2018-05-10T20:05:32.701Z,12.80
2018-05-10T20:08:00.503Z,12.70
2018-05-10T20:10:28.093Z,12.60
2018-05-10T20:12:55.680Z,12.50
2018-05-10T20:15:23.264Z,12.50
2018-05-10T20:17:51.654Z,12.40
2018-05-10T20:20:19.248Z,12.40
2018-05-10T20:22:46.893Z,12.40
2018-05-10T20:25:14.526Z,12.30
2018-05-10T20:27:42.541Z,12.30
2018-05-10T20:30:10.178Z,12.20
2018-05-10T20:32:37.780Z,12.20
2018-05-10T20:35:05.448Z,12.20
2018-05-10T20:37:33.072Z,12.10
2018-05-10T20:40:00.797Z,12.00
2018-05-10T20:42:28.356Z,11.90
2018-05-10T20:44:55.947Z,11.90
2018-05-10T20:47:23.573Z,11.90
2018-05-10T20:49:51.158Z,11.90
2018-05-10T20:52:19.512Z,11.80
2018-05-10T20:54:47.117Z,11.70
2018-05-10T20:57:14.692Z,11.80
2018-05-10T20:59:42.288Z,11.80
2018-05-10T21:02:09.896Z,11.70
2018-05-10T21:04:37.477Z,11.70
2018-05-10T21:07:05.057Z,11.60
2018-05-10T21:09:32.630Z,11.60
2018-05-10T21:12:00.245Z,11.50
2018-05-10T21:14:27.852Z,11.40
2018-05-10T21:16:55.417Z,11.40
2018-05-10T21:19:23.091Z,11.20
2018-05-10T21:21:50.695Z,11.20
2018-05-10T21:24:18.422Z,11.10
2018-05-10T21:26:46.032Z,11.10
2018-05-10T21:29:13.640Z,11.00
2018-05-10T21:31:41.217Z,11.00
2018-05-10T21:34:09.630Z,10.80
2018-05-10T21:36:38.010Z,10.70
2018-05-10T21:39:05.636Z,10.70
2018-05-10T21:41:33.963Z,10.50
2018-05-10T21:44:01.569Z,10.50
2018-05-10T21:46:29.138Z,10.50
2018-05-10T21:48:57.510Z,10.40
2018-05-10T21:51:25.106Z,10.40
2018-05-10T21:53:52.702Z,10.30
2018-05-10T21:56:20.375Z,10.20
2018-05-10T21:58:47.975Z,10.10
2018-05-10T22:01:15.556Z,10.10
2018-05-10T22:03:43.145Z,10.00
2018-05-10T22:06:10.793Z,10.00
2018-05-10T22:08:38.372Z,10.00
2018-05-10T22:11:05.953Z,9.90
2018-05-10T22:13:33.927Z,9.90
2018-05-10T22:16:01.585Z,9.80
2018-05-10T22:18:29.137Z,9.70
2018-05-10T22:20:56.738Z,9.70
2018-05-10T22:23:25.070Z,9.70
2018-05-10T22:25:52.677Z,9.60
2018-05-10T22:28:21.039Z,9.60
2018-05-10T22:30:48.624Z,9.60
2018-05-10T22:33:16.221Z,9.50
2018-05-10T22:35:43.797Z,9.60
2018-05-10T22:38:11.363Z,9.50
2018-05-10T22:40:38.940Z,9.50
2018-05-10T22:43:06.610Z,9.50
2018-05-10T22:45:34.254Z,9.50
2018-05-10T22:48:01.891Z,9.40
2018-05-10T22:50:29.457Z,9.40
2018-05-10T22:52:57.012Z,9.40
2018-05-10T22:55:24.587Z,9.40
2018-05-10T22:57:52.180Z,9.30
2018-05-10T23:00:20.507Z,10.70
2018-05-10T23:02:48.122Z,9.30
2018-05-10T23:05:16.434Z,9.40
2018-05-10T23:07:44.043Z,9.40
2018-05-10T23:10:11.597Z,9.50
2018-05-10T23:12:39.188Z,9.50
2018-05-10T23:15:07.535Z,9.50
2018-05-10T23:17:35.208Z,9.50
2018-05-10T23:20:02.803Z,9.50
2018-05-10T23:22:31.165Z,9.50
2018-05-10T23:24:59.515Z,9.40
2018-05-10T23:27:27.083Z,9.40
2018-05-10T23:29:54.651Z,9.40
2018-05-10T23:32:22.224Z,9.40
2018-05-10T23:34:50.572Z,9.30
2018-05-10T23:37:18.147Z,9.30
2018-05-10T23:39:45.730Z,9.20
2018-05-10T23:42:14.128Z,9.20
2018-05-10T23:44:41.724Z,9.20
2018-05-10T23:47:09.295Z,9.20
2018-05-10T23:49:36.890Z,9.20
2018-05-10T23:52:04.448Z,9.20
2018-05-10T23:54:32.805Z,9.20
2018-05-10T23:57:00.353Z,9.20
2018-05-10T23:59:27.998Z,9.30
